Hauptseite
METAR-TAF:

METAR-TAF

Flughäfen :

Erfurt, Deutschland

Flughafen Erfurt-Weimar

Breite: 50-59N, Länge: 010-58E, Höhe: 315 m

Beobachtung

Neuester Wetterbericht von vor 36 Minuten, um 08:20 UTC
Wind 10 kt aus Süd
Temperatur 9°C
Luftfeuchtigkeit 71%
Luftdruck 1007 hPa
Sichtweite 10 km oder mehr
Durchbrochene Bewölkung in der Höhe von 3200 ft

METAR: EDDE 270820Z 19010KT 9999 BKN032 09/04 Q1007 NOSIG

Zeit: 09:56 (08:56 UTC)

Prognose

Neuester Wetterbericht von vor 3 Stunden und 56 Minuten, um 05:00 UTC
Gültige Prognose vom 27 um 06 UTC bis 28 um 06 UTC
Wind 7 kt aus Süd/Südwest
Sichtweite 10 km oder mehr
Durchbrochene Bewölkung in der Höhe von 3000 ft
Übergehend zu
vom 27 um 06 UTC bis 27 um 09 UTC
Wind 12 kt aus Süd/Südwest
Zeitweise
vom 27 um 09 UTC bis 28 um 06 UTC
Wind 15 kt aus Süd/Südwest, Böen bis zu 25 kt

TAF: EDDE 270500Z 2706/2806 20007KT 9999 BKN030 BECMG 2706/2709 20012KT TEMPO 2709/2806 20015G25KT

Wetterbeobachtungen und Prognosen von mehr als 4000 Flughäfen (METAR und TAF Bericht).

Die verfügbaren Stationen werden durch gelbe und rote Markierungen auf der Karte dargestellt.

Führen Sie die Maus auf sie, um den Namen der Station zu sehen.

Darauf klicken, um die Beobachtung von Wetterbeobachtungen und Prognosen zu sehen.

Um die Karte zu ändern : klicken Sie auf den grünen Tasten mit einem schwarzen Kreuz Zum Vergrößern, auf den grünen Button mit einem Gedankenstrich zu verkleinern, oder auf die grünen Pfeile für benachbarte Karten.


METAR-TAF: